Aviation Digital Data Service (ADDS)

Output produced by METARs form (1456 UTC 19 April 2019)
found at http://www.aviationweather.gov/metar/data/
 
Forecast for: LEGT (MADRID/GETAFE (A, ES)
Text: TAF LEGT 191400Z 1915/1924 07007KT 9999 -RA SCT012 BKN020
Forecast period: 1500 UTC 19 April 2019 to 0000 UTC 20 April 2019
Forecast type: FROM: standard forecast or significant change
Winds: from the ENE (70 degrees) at 8 MPH (7 knots; 3.6 m/s)
Visibility: 6 or more miles 10+ km)
Ceiling: 2000 feet AGL
Clouds: scattered clouds at 1200 feet AGL
broken clouds at 2000 feet AGL
Weather: -RA  (light rain)
Text: PROB40
Forecast period: 1500 to 1800 UTC 19 April 2019
Forecast type: TEMPORARY: The following changes expected for less than half the time period
Visibility: 2.49 miles (4.01 km)
Ceiling: 1200 feet AGL
Clouds: broken clouds at 1200 feet AGL
Weather: RA  (moderate rain)